sensor_id;sensor_type;location;lat;lon;timestamp;P1;durP1;ratioP1;P2;durP2;ratioP2
77076;SDS011;66003;52.286;104.306;2023-04-24T00:01:01;8.07;;;3.45;;
77076;SDS011;66003;52.286;104.306;2023-04-24T00:03:27;8.85;;;3.85;;
77076;SDS011;66003;52.286;104.306;2023-04-24T00:05:54;12.95;;;4.25;;
77076;SDS011;66003;52.286;104.306;2023-04-24T00:08:20;13.13;;;4.28;;
77076;SDS011;66003;52.286;104.306;2023-04-24T00:10:48;8.25;;;4.72;;
77076;SDS011;66003;52.286;104.306;2023-04-24T00:13:14;15.23;;;5.75;;
77076;SDS011;66003;52.286;104.306;2023-04-24T00:15:40;9.27;;;4.25;;
77076;SDS011;66003;52.286;104.306;2023-04-24T00:18:06;11.90;;;5.03;;
77076;SDS011;66003;52.286;104.306;2023-04-24T00:20:35;8.07;;;4.80;;
77076;SDS011;66003;52.286;104.306;2023-04-24T00:23:02;12.10;;;4.28;;
77076;SDS011;66003;52.286;104.306;2023-04-24T00:25:28;13.32;;;4.85;;
77076;SDS011;66003;52.286;104.306;2023-04-24T00:27:55;15.18;;;5.53;;
77076;SDS011;66003;52.286;104.306;2023-04-24T00:30:21;13.35;;;3.97;;
77076;SDS011;66003;52.286;104.306;2023-04-24T00:32:47;11.13;;;4.07;;
77076;SDS011;66003;52.286;104.306;2023-04-24T00:35:13;11.10;;;4.03;;
77076;SDS011;66003;52.286;104.306;2023-04-24T00:37:40;9.05;;;4.68;;
77076;SDS011;66003;52.286;104.306;2023-04-24T00:40:06;9.02;;;4.10;;
77076;SDS011;66003;52.286;104.306;2023-04-24T00:42:33;13.65;;;4.45;;
77076;SDS011;66003;52.286;104.306;2023-04-24T00:45:00;18.20;;;5.00;;
77076;SDS011;66003;52.286;104.306;2023-04-24T00:47:30;9.23;;;4.93;;
77076;SDS011;66003;52.286;104.306;2023-04-24T00:50:00;12.77;;;5.53;;
77076;SDS011;66003;52.286;104.306;2023-04-24T00:52:32;14.55;;;6.97;;
77076;SDS011;66003;52.286;104.306;2023-04-24T00:54:59;11.13;;;6.72;;
77076;SDS011;66003;52.286;104.306;2023-04-24T00:57:26;17.40;;;8.05;;
77076;SDS011;66003;52.286;104.306;2023-04-24T00:59:52;9.98;;;7.70;;
77076;SDS011;66003;52.286;104.306;2023-04-24T01:02:19;18.00;;;8.38;;
77076;SDS011;66003;52.286;104.306;2023-04-24T01:04:46;13.48;;;8.95;;
77076;SDS011;66003;52.286;104.306;2023-04-24T01:07:12;15.30;;;11.15;;
77076;SDS011;66003;52.286;104.306;2023-04-24T01:09:39;31.88;;;13.30;;
77076;SDS011;66003;52.286;104.306;2023-04-24T01:12:09;18.17;;;13.57;;
77076;SDS011;66003;52.286;104.306;2023-04-24T01:14:36;20.67;;;13.18;;
77076;SDS011;66003;52.286;104.306;2023-04-24T01:17:02;26.63;;;13.68;;
77076;SDS011;66003;52.286;104.306;2023-04-24T01:19:28;23.08;;;15.45;;
77076;SDS011;66003;52.286;104.306;2023-04-24T01:21:56;22.35;;;13.65;;
77076;SDS011;66003;52.286;104.306;2023-04-24T01:24:26;25.73;;;15.55;;
77076;SDS011;66003;52.286;104.306;2023-04-24T01:26:52;19.90;;;13.15;;
77076;SDS011;66003;52.286;104.306;2023-04-24T01:29:18;19.60;;;13.57;;
77076;SDS011;66003;52.286;104.306;2023-04-24T01:31:45;17.48;;;13.15;;
77076;SDS011;66003;52.286;104.306;2023-04-24T01:34:11;18.90;;;11.98;;
77076;SDS011;66003;52.286;104.306;2023-04-24T01:36:38;21.60;;;13.60;;
77076;SDS011;66003;52.286;104.306;2023-04-24T01:39:05;19.27;;;11.13;;
77076;SDS011;66003;52.286;104.306;2023-04-24T01:41:31;19.40;;;12.30;;
77076;SDS011;66003;52.286;104.306;2023-04-24T01:43:58;19.90;;;12.20;;
77076;SDS011;66003;52.286;104.306;2023-04-24T01:46:24;19.52;;;12.32;;
77076;SDS011;66003;52.286;104.306;2023-04-24T01:48:51;17.75;;;10.70;;
77076;SDS011;66003;52.286;104.306;2023-04-24T01:51:17;15.02;;;10.98;;
77076;SDS011;66003;52.286;104.306;2023-04-24T01:53:44;17.02;;;9.40;;
77076;SDS011;66003;52.286;104.306;2023-04-24T01:56:10;18.13;;;10.10;;
77076;SDS011;66003;52.286;104.306;2023-04-24T01:58:37;22.50;;;9.82;;
77076;SDS011;66003;52.286;104.306;2023-04-24T02:01:03;11.63;;;8.10;;
77076;SDS011;66003;52.286;104.306;2023-04-24T02:03:29;15.88;;;9.25;;
77076;SDS011;66003;52.286;104.306;2023-04-24T02:05:55;12.13;;;8.43;;
77076;SDS011;66003;52.286;104.306;2023-04-24T02:08:21;10.80;;;7.80;;
77076;SDS011;66003;52.286;104.306;2023-04-24T02:10:48;14.23;;;7.25;;
77076;SDS011;66003;52.286;104.306;2023-04-24T02:13:14;13.07;;;7.13;;
77076;SDS011;66003;52.286;104.306;2023-04-24T02:15:40;11.88;;;6.20;;
77076;SDS011;66003;52.286;104.306;2023-04-24T02:18:07;7.82;;;6.18;;
77076;SDS011;66003;52.286;104.306;2023-04-24T02:20:33;8.02;;;5.68;;
77076;SDS011;66003;52.286;104.306;2023-04-24T02:23:01;9.05;;;6.10;;
77076;SDS011;66003;52.286;104.306;2023-04-24T02:25:27;7.15;;;4.75;;
77076;SDS011;66003;52.286;104.306;2023-04-24T02:27:53;6.38;;;5.15;;
77076;SDS011;66003;52.286;104.306;2023-04-24T02:30:19;5.45;;;3.67;;
77076;SDS011;66003;52.286;104.306;2023-04-24T02:32:46;6.45;;;3.63;;
77076;SDS011;66003;52.286;104.306;2023-04-24T02:35:12;6.72;;;3.20;;
77076;SDS011;66003;52.286;104.306;2023-04-24T02:37:38;4.45;;;2.10;;
77076;SDS011;66003;52.286;104.306;2023-04-24T02:40:04;6.35;;;2.28;;
77076;SDS011;66003;52.286;104.306;2023-04-24T02:42:31;7.60;;;2.30;;
77076;SDS011;66003;52.286;104.306;2023-04-24T02:44:58;4.25;;;2.35;;
77076;SDS011;66003;52.286;104.306;2023-04-24T02:47:24;4.72;;;2.08;;
77076;SDS011;66003;52.286;104.306;2023-04-24T02:49:50;4.97;;;2.30;;
77076;SDS011;66003;52.286;104.306;2023-04-24T02:52:16;4.43;;;1.50;;
77076;SDS011;66003;52.286;104.306;2023-04-24T02:54:42;2.83;;;1.42;;
77076;SDS011;66003;52.286;104.306;2023-04-24T02:57:09;7.10;;;1.40;;
77076;SDS011;66003;52.286;104.306;2023-04-24T02:59:35;2.50;;;0.93;;
77076;SDS011;66003;52.286;104.306;2023-04-24T03:02:01;3.42;;;1.70;;
77076;SDS011;66003;52.286;104.306;2023-04-24T03:04:27;2.97;;;1.50;;
77076;SDS011;66003;52.286;104.306;2023-04-24T03:06:54;2.72;;;1.58;;
77076;SDS011;66003;52.286;104.306;2023-04-24T03:09:21;3.30;;;1.88;;
77076;SDS011;66003;52.286;104.306;2023-04-24T03:11:47;4.28;;;1.45;;
77076;SDS011;66003;52.286;104.306;2023-04-24T03:14:15;5.10;;;1.67;;
77076;SDS011;66003;52.286;104.306;2023-04-24T03:16:41;2.88;;;1.77;;
77076;SDS011;66003;52.286;104.306;2023-04-24T03:19:08;6.57;;;1.77;;
77076;SDS011;66003;52.286;104.306;2023-04-24T03:21:34;5.28;;;1.55;;
77076;SDS011;66003;52.286;104.306;2023-04-24T03:24:01;2.25;;;1.55;;
77076;SDS011;66003;52.286;104.306;2023-04-24T03:26:27;4.72;;;1.50;;
77076;SDS011;66003;52.286;104.306;2023-04-24T03:28:53;3.17;;;1.33;;
77076;SDS011;66003;52.286;104.306;2023-04-24T03:31:20;7.03;;;2.05;;
77076;SDS011;66003;52.286;104.306;2023-04-24T03:33:46;3.25;;;1.33;;
77076;SDS011;66003;52.286;104.306;2023-04-24T03:36:12;5.13;;;1.85;;
77076;SDS011;66003;52.286;104.306;2023-04-24T03:38:38;3.30;;;1.88;;
77076;SDS011;66003;52.286;104.306;2023-04-24T03:41:05;4.78;;;1.75;;
77076;SDS011;66003;52.286;104.306;2023-04-24T03:43:31;5.43;;;1.58;;
77076;SDS011;66003;52.286;104.306;2023-04-24T03:45:58;3.75;;;1.60;;
77076;SDS011;66003;52.286;104.306;2023-04-24T03:48:24;4.13;;;1.52;;
77076;SDS011;66003;52.286;104.306;2023-04-24T03:50:51;3.55;;;1.52;;
77076;SDS011;66003;52.286;104.306;2023-04-24T03:53:17;2.50;;;1.40;;
77076;SDS011;66003;52.286;104.306;2023-04-24T03:55:45;4.35;;;1.80;;
77076;SDS011;66003;52.286;104.306;2023-04-24T03:58:11;4.45;;;1.83;;
77076;SDS011;66003;52.286;104.306;2023-04-24T04:00:39;2.28;;;1.67;;
77076;SDS011;66003;52.286;104.306;2023-04-24T04:03:06;3.80;;;1.67;;
77076;SDS011;66003;52.286;104.306;2023-04-24T04:05:32;4.10;;;1.38;;
77076;SDS011;66003;52.286;104.306;2023-04-24T04:07:58;5.20;;;1.98;;
77076;SDS011;66003;52.286;104.306;2023-04-24T04:10:24;4.32;;;2.03;;
77076;SDS011;66003;52.286;104.306;2023-04-24T04:12:50;4.18;;;1.77;;
77076;SDS011;66003;52.286;104.306;2023-04-24T04:15:17;3.05;;;2.22;;
77076;SDS011;66003;52.286;104.306;2023-04-24T04:17:43;5.00;;;1.75;;
77076;SDS011;66003;52.286;104.306;2023-04-24T04:20:09;4.85;;;1.92;;
77076;SDS011;66003;52.286;104.306;2023-04-24T04:22:36;3.25;;;2.00;;
77076;SDS011;66003;52.286;104.306;2023-04-24T04:25:02;2.33;;;1.80;;
77076;SDS011;66003;52.286;104.306;2023-04-24T04:27:30;2.72;;;2.00;;
77076;SDS011;66003;52.286;104.306;2023-04-24T04:30:03;6.95;;;2.25;;
77076;SDS011;66003;52.286;104.306;2023-04-24T04:32:33;3.58;;;1.88;;
77076;SDS011;66003;52.286;104.306;2023-04-24T04:35:00;4.20;;;1.77;;
77076;SDS011;66003;52.286;104.306;2023-04-24T04:37:30;3.58;;;2.17;;
77076;SDS011;66003;52.286;104.306;2023-04-24T04:40:00;3.97;;;1.88;;
77076;SDS011;66003;52.286;104.306;2023-04-24T04:42:27;3.30;;;1.90;;
77076;SDS011;66003;52.286;104.306;2023-04-24T04:44:53;6.45;;;2.65;;
77076;SDS011;66003;52.286;104.306;2023-04-24T04:47:21;3.83;;;1.60;;
77076;SDS011;66003;52.286;104.306;2023-04-24T04:49:52;4.60;;;1.65;;
77076;SDS011;66003;52.286;104.306;2023-04-24T04:52:18;3.42;;;1.73;;
77076;SDS011;66003;52.286;104.306;2023-04-24T04:57:11;5.43;;;2.03;;
77076;SDS011;66003;52.286;104.306;2023-04-24T04:59:37;3.42;;;2.55;;
77076;SDS011;66003;52.286;104.306;2023-04-24T05:02:04;2.67;;;1.80;;
77076;SDS011;66003;52.286;104.306;2023-04-24T05:04:30;4.30;;;2.60;;
77076;SDS011;66003;52.286;104.306;2023-04-24T05:06:56;3.97;;;1.55;;
77076;SDS011;66003;52.286;104.306;2023-04-24T05:09:22;3.92;;;1.48;;
77076;SDS011;66003;52.286;104.306;2023-04-24T05:11:49;4.30;;;1.92;;
77076;SDS011;66003;52.286;104.306;2023-04-24T05:14:15;2.22;;;0.95;;
77076;SDS011;66003;52.286;104.306;2023-04-24T05:16:43;5.40;;;1.73;;
77076;SDS011;66003;52.286;104.306;2023-04-24T05:19:09;3.47;;;1.88;;
77076;SDS011;66003;52.286;104.306;2023-04-24T05:21:37;4.88;;;1.55;;
77076;SDS011;66003;52.286;104.306;2023-04-24T05:24:04;2.60;;;1.40;;
77076;SDS011;66003;52.286;104.306;2023-04-24T05:26:31;3.42;;;1.10;;
77076;SDS011;66003;52.286;104.306;2023-04-24T05:28:57;7.75;;;2.17;;
77076;SDS011;66003;52.286;104.306;2023-04-24T05:31:24;5.68;;;1.27;;
77076;SDS011;66003;52.286;104.306;2023-04-24T05:33:51;6.35;;;2.30;;
77076;SDS011;66003;52.286;104.306;2023-04-24T05:36:17;3.05;;;1.52;;
77076;SDS011;66003;52.286;104.306;2023-04-24T05:38:44;2.60;;;0.88;;
77076;SDS011;66003;52.286;104.306;2023-04-24T05:43:36;3.30;;;1.17;;
77076;SDS011;66003;52.286;104.306;2023-04-24T05:46:02;4.25;;;1.38;;
77076;SDS011;66003;52.286;104.306;2023-04-24T05:48:28;3.95;;;1.27;;
77076;SDS011;66003;52.286;104.306;2023-04-24T05:50:54;3.45;;;1.00;;
77076;SDS011;66003;52.286;104.306;2023-04-24T05:53:20;2.00;;;1.00;;
77076;SDS011;66003;52.286;104.306;2023-04-24T05:55:47;2.55;;;1.23;;
77076;SDS011;66003;52.286;104.306;2023-04-24T05:58:13;4.35;;;1.13;;
77076;SDS011;66003;52.286;104.306;2023-04-24T06:00:40;3.72;;;1.38;;
77076;SDS011;66003;52.286;104.306;2023-04-24T06:03:08;7.93;;;2.08;;
77076;SDS011;66003;52.286;104.306;2023-04-24T06:08:00;3.67;;;1.08;;
77076;SDS011;66003;52.286;104.306;2023-04-24T06:10:27;1.80;;;0.98;;
77076;SDS011;66003;52.286;104.306;2023-04-24T06:12:53;3.38;;;1.65;;
77076;SDS011;66003;52.286;104.306;2023-04-24T06:15:21;3.95;;;1.48;;
77076;SDS011;66003;52.286;104.306;2023-04-24T06:17:47;3.10;;;1.27;;
77076;SDS011;66003;52.286;104.306;2023-04-24T06:20:14;2.03;;;1.10;;
77076;SDS011;66003;52.286;104.306;2023-04-24T06:22:40;1.92;;;1.23;;
77076;SDS011;66003;52.286;104.306;2023-04-24T06:25:06;2.75;;;1.80;;
77076;SDS011;66003;52.286;104.306;2023-04-24T06:27:33;4.20;;;1.27;;
77076;SDS011;66003;52.286;104.306;2023-04-24T06:29:59;4.65;;;1.50;;
77076;SDS011;66003;52.286;104.306;2023-04-24T06:32:25;1.52;;;1.10;;
77076;SDS011;66003;52.286;104.306;2023-04-24T06:34:53;2.28;;;1.27;;
77076;SDS011;66003;52.286;104.306;2023-04-24T06:37:22;1.70;;;0.98;;
77076;SDS011;66003;52.286;104.306;2023-04-24T06:39:48;2.97;;;1.85;;
77076;SDS011;66003;52.286;104.306;2023-04-24T06:42:15;3.15;;;1.20;;
77076;SDS011;66003;52.286;104.306;2023-04-24T06:44:41;4.80;;;1.58;;
77076;SDS011;66003;52.286;104.306;2023-04-24T06:49:34;2.28;;;1.13;;
77076;SDS011;66003;52.286;104.306;2023-04-24T06:52:04;4.88;;;1.98;;
77076;SDS011;66003;52.286;104.306;2023-04-24T06:54:31;1.92;;;1.05;;
77076;SDS011;66003;52.286;104.306;2023-04-24T06:57:00;1.42;;;0.55;;
77076;SDS011;66003;52.286;104.306;2023-04-24T06:59:28;3.35;;;1.42;;
77076;SDS011;66003;52.286;104.306;2023-04-24T07:01:55;5.13;;;1.00;;
77076;SDS011;66003;52.286;104.306;2023-04-24T07:04:22;3.08;;;1.30;;
77076;SDS011;66003;52.286;104.306;2023-04-24T07:06:50;2.75;;;0.80;;
77076;SDS011;66003;52.286;104.306;2023-04-24T07:11:44;1.80;;;0.68;;
77076;SDS011;66003;52.286;104.306;2023-04-24T07:14:11;3.22;;;0.82;;
77076;SDS011;66003;52.286;104.306;2023-04-24T07:16:38;2.58;;;1.20;;
77076;SDS011;66003;52.286;104.306;2023-04-24T07:19:04;0.95;;;0.57;;
77076;SDS011;66003;52.286;104.306;2023-04-24T07:21:30;5.18;;;0.88;;
77076;SDS011;66003;52.286;104.306;2023-04-24T07:24:00;2.15;;;1.52;;
77076;SDS011;66003;52.286;104.306;2023-04-24T07:28:53;2.63;;;0.75;;
77076;SDS011;66003;52.286;104.306;2023-04-24T07:31:20;3.92;;;1.42;;
77076;SDS011;66003;52.286;104.306;2023-04-24T07:33:49;11.18;;;1.45;;
77076;SDS011;66003;52.286;104.306;2023-04-24T07:36:16;3.60;;;1.00;;
77076;SDS011;66003;52.286;104.306;2023-04-24T07:38:47;2.75;;;0.90;;
77076;SDS011;66003;52.286;104.306;2023-04-24T07:41:13;3.17;;;1.42;;
77076;SDS011;66003;52.286;104.306;2023-04-24T07:43:40;2.05;;;1.45;;
77076;SDS011;66003;52.286;104.306;2023-04-24T07:46:07;8.60;;;1.17;;
77076;SDS011;66003;52.286;104.306;2023-04-24T07:48:35;9.32;;;1.15;;
77076;SDS011;66003;52.286;104.306;2023-04-24T07:51:02;3.35;;;1.42;;
77076;SDS011;66003;52.286;104.306;2023-04-24T07:53:28;2.00;;;0.68;;
77076;SDS011;66003;52.286;104.306;2023-04-24T07:55:55;1.52;;;0.80;;
77076;SDS011;66003;52.286;104.306;2023-04-24T07:58:21;3.08;;;1.60;;
77076;SDS011;66003;52.286;104.306;2023-04-24T08:00:48;4.35;;;1.27;;
77076;SDS011;66003;52.286;104.306;2023-04-24T08:03:14;3.72;;;1.15;;
77076;SDS011;66003;52.286;104.306;2023-04-24T08:05:43;1.48;;;0.90;;
77076;SDS011;66003;52.286;104.306;2023-04-24T08:08:09;2.28;;;1.63;;
77076;SDS011;66003;52.286;104.306;2023-04-24T08:10:36;2.75;;;1.25;;
77076;SDS011;66003;52.286;104.306;2023-04-24T08:13:02;4.03;;;1.45;;
77076;SDS011;66003;52.286;104.306;2023-04-24T08:15:28;9.23;;;1.33;;
77076;SDS011;66003;52.286;104.306;2023-04-24T08:17:54;7.10;;;1.85;;
77076;SDS011;66003;52.286;104.306;2023-04-24T08:20:21;5.43;;;1.45;;
77076;SDS011;66003;52.286;104.306;2023-04-24T08:22:47;2.50;;;1.05;;
77076;SDS011;66003;52.286;104.306;2023-04-24T08:25:14;6.13;;;1.60;;
77076;SDS011;66003;52.286;104.306;2023-04-24T08:27:40;4.55;;;1.65;;
77076;SDS011;66003;52.286;104.306;2023-04-24T08:30:07;6.80;;;2.03;;
77076;SDS011;66003;52.286;104.306;2023-04-24T08:32:34;5.50;;;1.55;;
77076;SDS011;66003;52.286;104.306;2023-04-24T08:35:00;2.95;;;1.77;;
77076;SDS011;66003;52.286;104.306;2023-04-24T08:37:27;4.07;;;1.35;;
77076;SDS011;66003;52.286;104.306;2023-04-24T08:39:56;5.65;;;1.70;;
77076;SDS011;66003;52.286;104.306;2023-04-24T08:42:22;4.75;;;1.33;;
77076;SDS011;66003;52.286;104.306;2023-04-24T08:44:49;7.97;;;1.67;;
77076;SDS011;66003;52.286;104.306;2023-04-24T08:47:16;1.88;;;0.85;;
77076;SDS011;66003;52.286;104.306;2023-04-24T08:49:42;4.00;;;2.00;;
77076;SDS011;66003;52.286;104.306;2023-04-24T08:52:08;7.25;;;1.20;;
77076;SDS011;66003;52.286;104.306;2023-04-24T08:54:35;5.95;;;1.00;;
77076;SDS011;66003;52.286;104.306;2023-04-24T08:57:02;7.85;;;2.58;;
77076;SDS011;66003;52.286;104.306;2023-04-24T08:59:32;3.35;;;1.65;;
77076;SDS011;66003;52.286;104.306;2023-04-24T09:01:59;4.88;;;1.42;;
77076;SDS011;66003;52.286;104.306;2023-04-24T09:04:26;2.78;;;1.33;;
77076;SDS011;66003;52.286;104.306;2023-04-24T09:06:55;3.90;;;1.13;;
77076;SDS011;66003;52.286;104.306;2023-04-24T09:09:22;4.80;;;1.00;;
77076;SDS011;66003;52.286;104.306;2023-04-24T09:11:50;4.68;;;1.27;;
77076;SDS011;66003;52.286;104.306;2023-04-24T09:14:20;7.13;;;1.42;;
77076;SDS011;66003;52.286;104.306;2023-04-24T09:16:49;4.57;;;1.13;;
77076;SDS011;66003;52.286;104.306;2023-04-24T09:19:15;5.32;;;0.95;;
77076;SDS011;66003;52.286;104.306;2023-04-24T09:21:41;3.10;;;1.52;;
77076;SDS011;66003;52.286;104.306;2023-04-24T09:24:21;4.00;;;1.35;;
77076;SDS011;66003;52.286;104.306;2023-04-24T09:26:57;7.53;;;1.45;;
77076;SDS011;66003;52.286;104.306;2023-04-24T09:29:24;6.18;;;1.30;;
77076;SDS011;66003;52.286;104.306;2023-04-24T09:31:51;7.93;;;1.90;;
77076;SDS011;66003;52.286;104.306;2023-04-24T09:34:24;5.03;;;2.15;;
77076;SDS011;66003;52.286;104.306;2023-04-24T09:36:52;4.30;;;1.10;;
77076;SDS011;66003;52.286;104.306;2023-04-24T09:39:19;8.23;;;1.48;;
77076;SDS011;66003;52.286;104.306;2023-04-24T09:44:17;1.85;;;0.93;;
77076;SDS011;66003;52.286;104.306;2023-04-24T09:46:46;2.42;;;1.23;;
77076;SDS011;66003;52.286;104.306;2023-04-24T09:49:16;2.60;;;1.38;;
77076;SDS011;66003;52.286;104.306;2023-04-24T09:51:47;3.05;;;1.55;;
77076;SDS011;66003;52.286;104.306;2023-04-24T09:54:20;2.55;;;1.20;;
77076;SDS011;66003;52.286;104.306;2023-04-24T09:59:15;4.25;;;1.33;;
77076;SDS011;66003;52.286;104.306;2023-04-24T10:01:42;2.88;;;1.52;;
77076;SDS011;66003;52.286;104.306;2023-04-24T10:04:17;7.15;;;2.10;;
77076;SDS011;66003;52.286;104.306;2023-04-24T10:06:52;4.85;;;0.95;;
77076;SDS011;66003;52.286;104.306;2023-04-24T10:09:21;1.50;;;0.82;;
77076;SDS011;66003;52.286;104.306;2023-04-24T10:11:51;3.53;;;1.00;;
77076;SDS011;66003;52.286;104.306;2023-04-24T10:14:19;3.08;;;1.30;;
77076;SDS011;66003;52.286;104.306;2023-04-24T10:16:47;4.30;;;1.27;;
77076;SDS011;66003;52.286;104.306;2023-04-24T10:21:41;3.78;;;1.52;;
77076;SDS011;66003;52.286;104.306;2023-04-24T10:24:12;4.57;;;0.75;;
77076;SDS011;66003;52.286;104.306;2023-04-24T10:26:43;4.70;;;1.63;;
77076;SDS011;66003;52.286;104.306;2023-04-24T10:29:11;4.88;;;1.98;;
77076;SDS011;66003;52.286;104.306;2023-04-24T10:31:39;3.58;;;1.13;;
77076;SDS011;66003;52.286;104.306;2023-04-24T10:34:05;3.78;;;1.63;;
77076;SDS011;66003;52.286;104.306;2023-04-24T10:36:32;3.22;;;1.55;;
77076;SDS011;66003;52.286;104.306;2023-04-24T10:39:03;5.13;;;1.63;;
77076;SDS011;66003;52.286;104.306;2023-04-24T10:41:36;4.68;;;1.52;;
77076;SDS011;66003;52.286;104.306;2023-04-24T10:44:04;5.45;;;1.73;;
77076;SDS011;66003;52.286;104.306;2023-04-24T10:46:36;4.10;;;1.67;;
77076;SDS011;66003;52.286;104.306;2023-04-24T10:49:03;5.22;;;1.40;;
77076;SDS011;66003;52.286;104.306;2023-04-24T10:54:29;4.47;;;2.20;;
77076;SDS011;66003;52.286;104.306;2023-04-24T10:59:48;4.95;;;1.75;;
77076;SDS011;66003;52.286;104.306;2023-04-24T11:02:38;4.22;;;1.75;;
77076;SDS011;66003;52.286;104.306;2023-04-24T11:05:06;4.40;;;1.75;;
77076;SDS011;66003;52.286;104.306;2023-04-24T11:11:01;6.32;;;2.03;;
77076;SDS011;66003;52.286;104.306;2023-04-24T11:16:27;2.25;;;1.58;;
77076;SDS011;66003;52.286;104.306;2023-04-24T11:19:03;2.45;;;2.17;;
77076;SDS011;66003;52.286;104.306;2023-04-24T11:21:45;4.88;;;1.10;;
77076;SDS011;66003;52.286;104.306;2023-04-24T11:32:28;3.72;;;1.65;;
77076;SDS011;66003;52.286;104.306;2023-04-24T11:34:55;3.10;;;2.38;;
77076;SDS011;66003;52.286;104.306;2023-04-24T11:37:33;6.88;;;1.92;;
77076;SDS011;66003;52.286;104.306;2023-04-24T11:40:00;3.83;;;1.33;;
77076;SDS011;66003;52.286;104.306;2023-04-24T11:42:40;4.38;;;2.38;;
77076;SDS011;66003;52.286;104.306;2023-04-24T11:45:13;7.28;;;1.70;;
77076;SDS011;66003;52.286;104.306;2023-04-24T11:47:44;4.32;;;1.77;;
77076;SDS011;66003;52.286;104.306;2023-04-24T11:50:11;7.30;;;1.27;;
77076;SDS011;66003;52.286;104.306;2023-04-24T11:52:42;1.33;;;0.70;;
77076;SDS011;66003;52.286;104.306;2023-04-24T11:57:43;6.15;;;1.48;;
77076;SDS011;66003;52.286;104.306;2023-04-24T12:00:19;4.43;;;1.75;;
77076;SDS011;66003;52.286;104.306;2023-04-24T12:02:47;4.32;;;1.70;;
77076;SDS011;66003;52.286;104.306;2023-04-24T12:05:25;3.17;;;1.40;;
77076;SDS011;66003;52.286;104.306;2023-04-24T12:07:53;7.40;;;1.88;;
77076;SDS011;66003;52.286;104.306;2023-04-24T12:10:20;3.08;;;1.60;;
77076;SDS011;66003;52.286;104.306;2023-04-24T12:12:49;7.03;;;1.50;;
77076;SDS011;66003;52.286;104.306;2023-04-24T12:15:17;5.65;;;1.60;;
77076;SDS011;66003;52.286;104.306;2023-04-24T12:20:17;4.93;;;1.20;;
77076;SDS011;66003;52.286;104.306;2023-04-24T12:22:50;4.90;;;1.13;;
77076;SDS011;66003;52.286;104.306;2023-04-24T12:25:20;4.18;;;2.08;;
77076;SDS011;66003;52.286;104.306;2023-04-24T12:28:10;4.38;;;1.45;;
77076;SDS011;66003;52.286;104.306;2023-04-24T12:30:42;4.53;;;2.08;;
77076;SDS011;66003;52.286;104.306;2023-04-24T12:33:17;6.65;;;2.00;;
77076;SDS011;66003;52.286;104.306;2023-04-24T12:35:45;5.90;;;1.63;;
77076;SDS011;66003;52.286;104.306;2023-04-24T12:38:12;7.97;;;2.70;;
77076;SDS011;66003;52.286;104.306;2023-04-24T12:40:40;6.57;;;1.73;;
77076;SDS011;66003;52.286;104.306;2023-04-24T12:43:14;3.40;;;1.55;;
77076;SDS011;66003;52.286;104.306;2023-04-24T12:45:47;6.13;;;2.00;;
77076;SDS011;66003;52.286;104.306;2023-04-24T12:48:14;5.35;;;1.70;;
77076;SDS011;66003;52.286;104.306;2023-04-24T12:50:40;3.08;;;1.23;;
77076;SDS011;66003;52.286;104.306;2023-04-24T12:53:07;7.13;;;1.83;;
77076;SDS011;66003;52.286;104.306;2023-04-24T12:55:34;2.33;;;1.45;;
77076;SDS011;66003;52.286;104.306;2023-04-24T12:58:01;4.43;;;1.42;;
77076;SDS011;66003;52.286;104.306;2023-04-24T13:00:29;2.05;;;1.67;;
77076;SDS011;66003;52.286;104.306;2023-04-24T13:02:55;3.13;;;1.55;;
77076;SDS011;66003;52.286;104.306;2023-04-24T13:05:22;2.88;;;1.90;;
77076;SDS011;66003;52.286;104.306;2023-04-24T13:07:49;9.10;;;1.88;;
77076;SDS011;66003;52.286;104.306;2023-04-24T13:10:16;4.28;;;1.63;;
77076;SDS011;66003;52.286;104.306;2023-04-24T13:12:44;2.85;;;1.63;;
77076;SDS011;66003;52.286;104.306;2023-04-24T13:15:12;3.70;;;1.45;;
77076;SDS011;66003;52.286;104.306;2023-04-24T13:17:39;5.45;;;2.58;;
77076;SDS011;66003;52.286;104.306;2023-04-24T13:20:05;5.05;;;2.05;;
77076;SDS011;66003;52.286;104.306;2023-04-24T13:22:34;5.93;;;2.10;;
77076;SDS011;66003;52.286;104.306;2023-04-24T13:25:01;4.15;;;2.28;;
77076;SDS011;66003;52.286;104.306;2023-04-24T13:27:31;8.30;;;1.90;;
77076;SDS011;66003;52.286;104.306;2023-04-24T13:30:01;4.53;;;2.10;;
77076;SDS011;66003;52.286;104.306;2023-04-24T13:32:32;2.95;;;1.40;;
77076;SDS011;66003;52.286;104.306;2023-04-24T13:35:01;4.30;;;1.48;;
77076;SDS011;66003;52.286;104.306;2023-04-24T13:37:33;7.53;;;1.95;;
77076;SDS011;66003;52.286;104.306;2023-04-24T13:40:02;4.53;;;1.13;;
77076;SDS011;66003;52.286;104.306;2023-04-24T13:42:33;8.18;;;1.80;;
77076;SDS011;66003;52.286;104.306;2023-04-24T13:45:18;3.30;;;1.77;;
77076;SDS011;66003;52.286;104.306;2023-04-24T13:47:47;5.25;;;1.02;;
77076;SDS011;66003;52.286;104.306;2023-04-24T13:50:16;5.65;;;1.48;;
77076;SDS011;66003;52.286;104.306;2023-04-24T13:52:45;3.60;;;1.48;;
77076;SDS011;66003;52.286;104.306;2023-04-24T13:55:13;4.78;;;1.30;;
77076;SDS011;66003;52.286;104.306;2023-04-24T14:03:01;2.42;;;1.13;;
77076;SDS011;66003;52.286;104.306;2023-04-24T14:05:30;2.40;;;1.38;;
77076;SDS011;66003;52.286;104.306;2023-04-24T14:07:57;5.70;;;2.00;;
77076;SDS011;66003;52.286;104.306;2023-04-24T14:10:24;2.45;;;1.80;;
77076;SDS011;66003;52.286;104.306;2023-04-24T14:12:51;5.60;;;1.50;;
77076;SDS011;66003;52.286;104.306;2023-04-24T14:15:20;5.72;;;1.55;;
77076;SDS011;66003;52.286;104.306;2023-04-24T14:17:47;2.78;;;2.00;;
77076;SDS011;66003;52.286;104.306;2023-04-24T14:22:53;2.75;;;0.85;;
77076;SDS011;66003;52.286;104.306;2023-04-24T14:25:20;3.58;;;1.63;;
77076;SDS011;66003;52.286;104.306;2023-04-24T14:27:47;4.55;;;1.60;;
77076;SDS011;66003;52.286;104.306;2023-04-24T14:30:14;4.30;;;1.88;;
77076;SDS011;66003;52.286;104.306;2023-04-24T14:32:41;6.65;;;2.17;;
77076;SDS011;66003;52.286;104.306;2023-04-24T14:35:08;2.90;;;1.52;;
77076;SDS011;66003;52.286;104.306;2023-04-24T14:37:34;2.80;;;1.45;;
77076;SDS011;66003;52.286;104.306;2023-04-24T14:40:02;2.05;;;1.52;;
77076;SDS011;66003;52.286;104.306;2023-04-24T14:42:30;3.45;;;2.05;;
77076;SDS011;66003;52.286;104.306;2023-04-24T14:44:57;3.03;;;1.55;;
77076;SDS011;66003;52.286;104.306;2023-04-24T14:47:25;3.25;;;1.63;;
77076;SDS011;66003;52.286;104.306;2023-04-24T14:49:51;2.08;;;1.20;;
77076;SDS011;66003;52.286;104.306;2023-04-24T14:52:18;3.25;;;1.65;;
77076;SDS011;66003;52.286;104.306;2023-04-24T14:54:44;3.33;;;1.48;;
77076;SDS011;66003;52.286;104.306;2023-04-24T14:57:21;3.72;;;1.73;;
77076;SDS011;66003;52.286;104.306;2023-04-24T14:59:57;5.13;;;1.52;;
77076;SDS011;66003;52.286;104.306;2023-04-24T15:02:32;4.53;;;1.63;;
77076;SDS011;66003;52.286;104.306;2023-04-24T15:07:24;3.60;;;1.25;;
77076;SDS011;66003;52.286;104.306;2023-04-24T15:09:54;2.65;;;1.45;;
77076;SDS011;66003;52.286;104.306;2023-04-24T15:12:28;1.00;;;0.47;;
77076;SDS011;66003;52.286;104.306;2023-04-24T15:14:55;4.55;;;1.30;;
77076;SDS011;66003;52.286;104.306;2023-04-24T15:17:21;4.65;;;1.75;;
77076;SDS011;66003;52.286;104.306;2023-04-24T15:19:47;6.13;;;1.17;;